sensor_id;sensor_type;location;lat;lon;timestamp;P1;durP1;ratioP1;P2;durP2;ratioP2
19816;SDS011;68323;49.394;8.434;2023-07-08T00:00:15;16.58;;;10.45;;
19816;SDS011;68323;49.394;8.434;2023-07-08T00:02:42;19.40;;;10.23;;
19816;SDS011;68323;49.394;8.434;2023-07-08T00:05:12;16.15;;;10.05;;
19816;SDS011;68323;49.394;8.434;2023-07-08T00:07:40;13.55;;;9.35;;
19816;SDS011;68323;49.394;8.434;2023-07-08T00:10:13;19.48;;;10.07;;
19816;SDS011;68323;49.394;8.434;2023-07-08T00:12:46;14.20;;;10.02;;
19816;SDS011;68323;49.394;8.434;2023-07-08T00:15:14;16.17;;;10.27;;
19816;SDS011;68323;49.394;8.434;2023-07-08T00:17:41;16.63;;;10.45;;
19816;SDS011;68323;49.394;8.434;2023-07-08T00:20:15;15.77;;;10.02;;
19816;SDS011;68323;49.394;8.434;2023-07-08T00:23:02;18.63;;;9.77;;
19816;SDS011;68323;49.394;8.434;2023-07-08T00:25:28;15.88;;;9.88;;
19816;SDS011;68323;49.394;8.434;2023-07-08T00:27:54;19.00;;;10.50;;
19816;SDS011;68323;49.394;8.434;2023-07-08T00:30:21;15.45;;;9.65;;
19816;SDS011;68323;49.394;8.434;2023-07-08T00:32:52;12.93;;;9.60;;
19816;SDS011;68323;49.394;8.434;2023-07-08T00:35:22;12.88;;;9.45;;
19816;SDS011;68323;49.394;8.434;2023-07-08T00:37:54;15.77;;;9.40;;
19816;SDS011;68323;49.394;8.434;2023-07-08T00:40:26;15.82;;;9.85;;
19816;SDS011;68323;49.394;8.434;2023-07-08T00:42:58;17.33;;;9.48;;
19816;SDS011;68323;49.394;8.434;2023-07-08T00:45:29;19.50;;;10.20;;
19816;SDS011;68323;49.394;8.434;2023-07-08T00:48:07;20.23;;;11.32;;
19816;SDS011;68323;49.394;8.434;2023-07-08T00:50:37;22.05;;;11.10;;
19816;SDS011;68323;49.394;8.434;2023-07-08T00:55:47;26.67;;;11.57;;
19816;SDS011;68323;49.394;8.434;2023-07-08T00:58:13;20.05;;;11.35;;
19816;SDS011;68323;49.394;8.434;2023-07-08T01:00:41;22.15;;;10.95;;
19816;SDS011;68323;49.394;8.434;2023-07-08T01:03:06;21.13;;;11.43;;
19816;SDS011;68323;49.394;8.434;2023-07-08T01:05:32;24.45;;;11.65;;
19816;SDS011;68323;49.394;8.434;2023-07-08T01:08:00;22.05;;;11.88;;
19816;SDS011;68323;49.394;8.434;2023-07-08T01:10:31;22.48;;;11.43;;
19816;SDS011;68323;49.394;8.434;2023-07-08T01:13:04;23.05;;;11.43;;
19816;SDS011;68323;49.394;8.434;2023-07-08T01:15:35;25.98;;;11.88;;
19816;SDS011;68323;49.394;8.434;2023-07-08T01:18:05;27.55;;;11.38;;
19816;SDS011;68323;49.394;8.434;2023-07-08T01:20:33;22.98;;;11.80;;
19816;SDS011;68323;49.394;8.434;2023-07-08T01:22:59;27.30;;;11.70;;
19816;SDS011;68323;49.394;8.434;2023-07-08T01:25:24;21.00;;;12.05;;
19816;SDS011;68323;49.394;8.434;2023-07-08T01:27:52;28.08;;;11.40;;
19816;SDS011;68323;49.394;8.434;2023-07-08T01:30:20;20.23;;;11.23;;
19816;SDS011;68323;49.394;8.434;2023-07-08T01:32:48;17.60;;;11.27;;
19816;SDS011;68323;49.394;8.434;2023-07-08T01:35:15;15.77;;;10.40;;
19816;SDS011;68323;49.394;8.434;2023-07-08T01:37:46;18.30;;;10.70;;
19816;SDS011;68323;49.394;8.434;2023-07-08T01:40:13;16.88;;;10.30;;
19816;SDS011;68323;49.394;8.434;2023-07-08T01:42:59;18.30;;;10.83;;
19816;SDS011;68323;49.394;8.434;2023-07-08T01:45:27;18.48;;;10.85;;
19816;SDS011;68323;49.394;8.434;2023-07-08T01:47:57;15.07;;;10.40;;
19816;SDS011;68323;49.394;8.434;2023-07-08T01:50:26;15.27;;;10.13;;
19816;SDS011;68323;49.394;8.434;2023-07-08T01:52:53;20.73;;;10.50;;
19816;SDS011;68323;49.394;8.434;2023-07-08T01:55:24;15.77;;;10.48;;
19816;SDS011;68323;49.394;8.434;2023-07-08T01:57:53;15.40;;;10.05;;
19816;SDS011;68323;49.394;8.434;2023-07-08T02:00:20;15.82;;;10.25;;
19816;SDS011;68323;49.394;8.434;2023-07-08T02:02:46;18.13;;;10.60;;
19816;SDS011;68323;49.394;8.434;2023-07-08T02:05:12;17.20;;;11.02;;
19816;SDS011;68323;49.394;8.434;2023-07-08T02:07:38;19.75;;;10.88;;
19816;SDS011;68323;49.394;8.434;2023-07-08T02:10:03;17.48;;;11.20;;
19816;SDS011;68323;49.394;8.434;2023-07-08T02:12:30;19.13;;;10.73;;
19816;SDS011;68323;49.394;8.434;2023-07-08T02:14:55;17.50;;;11.07;;
19816;SDS011;68323;49.394;8.434;2023-07-08T02:17:22;17.98;;;10.75;;
19816;SDS011;68323;49.394;8.434;2023-07-08T02:19:48;21.50;;;11.05;;
19816;SDS011;68323;49.394;8.434;2023-07-08T02:22:13;17.55;;;10.45;;
19816;SDS011;68323;49.394;8.434;2023-07-08T02:24:39;18.17;;;10.43;;
19816;SDS011;68323;49.394;8.434;2023-07-08T02:27:04;18.60;;;10.50;;
19816;SDS011;68323;49.394;8.434;2023-07-08T02:29:30;17.07;;;11.00;;
19816;SDS011;68323;49.394;8.434;2023-07-08T02:31:57;14.38;;;10.38;;
19816;SDS011;68323;49.394;8.434;2023-07-08T02:34:22;15.65;;;10.82;;
19816;SDS011;68323;49.394;8.434;2023-07-08T02:36:48;16.48;;;11.20;;
19816;SDS011;68323;49.394;8.434;2023-07-08T02:39:13;19.75;;;10.48;;
19816;SDS011;68323;49.394;8.434;2023-07-08T02:41:39;15.97;;;10.80;;
19816;SDS011;68323;49.394;8.434;2023-07-08T02:44:04;22.85;;;11.32;;
19816;SDS011;68323;49.394;8.434;2023-07-08T02:46:30;19.47;;;10.57;;
19816;SDS011;68323;49.394;8.434;2023-07-08T02:48:56;20.65;;;11.50;;
19816;SDS011;68323;49.394;8.434;2023-07-08T02:51:21;18.73;;;10.75;;
19816;SDS011;68323;49.394;8.434;2023-07-08T02:53:48;18.00;;;10.93;;
19816;SDS011;68323;49.394;8.434;2023-07-08T02:56:14;20.50;;;11.07;;
19816;SDS011;68323;49.394;8.434;2023-07-08T02:58:40;19.70;;;12.10;;
19816;SDS011;68323;49.394;8.434;2023-07-08T03:01:06;20.42;;;11.45;;
19816;SDS011;68323;49.394;8.434;2023-07-08T03:03:33;17.50;;;12.05;;
19816;SDS011;68323;49.394;8.434;2023-07-08T03:06:00;17.17;;;11.68;;
19816;SDS011;68323;49.394;8.434;2023-07-08T03:08:28;22.85;;;12.10;;
19816;SDS011;68323;49.394;8.434;2023-07-08T03:10:58;20.70;;;11.50;;
19816;SDS011;68323;49.394;8.434;2023-07-08T03:13:25;18.00;;;11.10;;
19816;SDS011;68323;49.394;8.434;2023-07-08T03:19:14;20.97;;;11.87;;
19816;SDS011;68323;49.394;8.434;2023-07-08T03:21:40;24.00;;;13.13;;
19816;SDS011;68323;49.394;8.434;2023-07-08T03:24:08;19.00;;;11.53;;
19816;SDS011;68323;49.394;8.434;2023-07-08T03:26:36;22.60;;;12.05;;
19816;SDS011;68323;49.394;8.434;2023-07-08T03:29:02;24.23;;;12.43;;
19816;SDS011;68323;49.394;8.434;2023-07-08T03:31:27;21.97;;;11.83;;
19816;SDS011;68323;49.394;8.434;2023-07-08T03:33:53;28.37;;;12.83;;
19816;SDS011;68323;49.394;8.434;2023-07-08T03:36:19;26.77;;;12.17;;
19816;SDS011;68323;49.394;8.434;2023-07-08T03:38:50;29.03;;;12.93;;
19816;SDS011;68323;49.394;8.434;2023-07-08T03:41:17;21.97;;;11.97;;
19816;SDS011;68323;49.394;8.434;2023-07-08T03:43:43;19.83;;;11.37;;
19816;SDS011;68323;49.394;8.434;2023-07-08T03:46:12;26.70;;;11.73;;
19816;SDS011;68323;49.394;8.434;2023-07-08T03:48:41;21.10;;;11.60;;
19816;SDS011;68323;49.394;8.434;2023-07-08T03:51:12;22.67;;;11.60;;
19816;SDS011;68323;49.394;8.434;2023-07-08T03:53:59;20.60;;;11.60;;
19816;SDS011;68323;49.394;8.434;2023-07-08T03:56:25;21.10;;;11.93;;
19816;SDS011;68323;49.394;8.434;2023-07-08T03:58:50;25.87;;;12.20;;
19816;SDS011;68323;49.394;8.434;2023-07-08T04:01:17;20.53;;;11.70;;
19816;SDS011;68323;49.394;8.434;2023-07-08T04:03:45;17.47;;;11.10;;
19816;SDS011;68323;49.394;8.434;2023-07-08T04:06:11;24.27;;;11.73;;
19816;SDS011;68323;49.394;8.434;2023-07-08T04:08:37;21.97;;;12.83;;
19816;SDS011;68323;49.394;8.434;2023-07-08T04:11:03;18.60;;;11.50;;
19816;SDS011;68323;49.394;8.434;2023-07-08T04:13:28;24.63;;;11.33;;
19816;SDS011;68323;49.394;8.434;2023-07-08T04:15:55;24.43;;;12.67;;
19816;SDS011;68323;49.394;8.434;2023-07-08T04:18:24;23.67;;;12.43;;
19816;SDS011;68323;49.394;8.434;2023-07-08T04:20:49;19.60;;;11.07;;
19816;SDS011;68323;49.394;8.434;2023-07-08T04:23:18;27.30;;;12.17;;
19816;SDS011;68323;49.394;8.434;2023-07-08T04:25:44;32.38;;;12.52;;
19816;SDS011;68323;49.394;8.434;2023-07-08T04:28:13;42.87;;;13.47;;
19816;SDS011;68323;49.394;8.434;2023-07-08T04:30:38;40.07;;;12.70;;
19816;SDS011;68323;49.394;8.434;2023-07-08T04:33:12;26.40;;;12.37;;
19816;SDS011;68323;49.394;8.434;2023-07-08T04:35:39;22.60;;;12.27;;
19816;SDS011;68323;49.394;8.434;2023-07-08T04:38:07;26.80;;;13.67;;
19816;SDS011;68323;49.394;8.434;2023-07-08T04:40:43;20.50;;;12.93;;
19816;SDS011;68323;49.394;8.434;2023-07-08T04:43:09;21.07;;;12.67;;
19816;SDS011;68323;49.394;8.434;2023-07-08T04:45:38;22.50;;;12.87;;
19816;SDS011;68323;49.394;8.434;2023-07-08T04:48:06;26.07;;;13.70;;
19816;SDS011;68323;49.394;8.434;2023-07-08T04:50:41;28.03;;;13.27;;
19816;SDS011;68323;49.394;8.434;2023-07-08T04:53:08;24.80;;;13.00;;
19816;SDS011;68323;49.394;8.434;2023-07-08T04:55:36;26.63;;;13.38;;
19816;SDS011;68323;49.394;8.434;2023-07-08T04:58:06;21.20;;;13.05;;
19816;SDS011;68323;49.394;8.434;2023-07-08T05:00:32;31.17;;;13.63;;
19816;SDS011;68323;49.394;8.434;2023-07-08T05:02:58;22.13;;;12.43;;
19816;SDS011;68323;49.394;8.434;2023-07-08T05:05:24;23.70;;;12.30;;
19816;SDS011;68323;49.394;8.434;2023-07-08T05:07:49;21.55;;;12.13;;
19816;SDS011;68323;49.394;8.434;2023-07-08T05:10:15;27.42;;;12.10;;
19816;SDS011;68323;49.394;8.434;2023-07-08T05:12:41;24.65;;;11.93;;
19816;SDS011;68323;49.394;8.434;2023-07-08T05:15:08;23.00;;;12.70;;
19816;SDS011;68323;49.394;8.434;2023-07-08T05:17:33;19.60;;;11.82;;
19816;SDS011;68323;49.394;8.434;2023-07-08T05:19:59;22.23;;;11.52;;
19816;SDS011;68323;49.394;8.434;2023-07-08T05:22:26;20.98;;;11.25;;
19816;SDS011;68323;49.394;8.434;2023-07-08T05:24:52;21.00;;;11.25;;
19816;SDS011;68323;49.394;8.434;2023-07-08T05:27:20;20.23;;;10.57;;
19816;SDS011;68323;49.394;8.434;2023-07-08T05:29:47;24.60;;;11.05;;
19816;SDS011;68323;49.394;8.434;2023-07-08T05:32:13;16.55;;;10.48;;
19816;SDS011;68323;49.394;8.434;2023-07-08T05:34:38;20.88;;;11.00;;
19816;SDS011;68323;49.394;8.434;2023-07-08T05:37:04;21.35;;;10.38;;
19816;SDS011;68323;49.394;8.434;2023-07-08T05:39:30;22.20;;;11.15;;
19816;SDS011;68323;49.394;8.434;2023-07-08T05:41:56;19.83;;;11.45;;
19816;SDS011;68323;49.394;8.434;2023-07-08T05:44:22;26.10;;;10.82;;
19816;SDS011;68323;49.394;8.434;2023-07-08T05:46:48;16.23;;;10.15;;
19816;SDS011;68323;49.394;8.434;2023-07-08T05:49:14;18.50;;;10.50;;
19816;SDS011;68323;49.394;8.434;2023-07-08T05:51:40;18.55;;;10.30;;
19816;SDS011;68323;49.394;8.434;2023-07-08T05:54:06;15.30;;;9.32;;
19816;SDS011;68323;49.394;8.434;2023-07-08T05:56:31;13.82;;;9.10;;
19816;SDS011;68323;49.394;8.434;2023-07-08T05:59:07;13.52;;;8.95;;
19816;SDS011;68323;49.394;8.434;2023-07-08T06:01:36;11.75;;;7.93;;
19816;SDS011;68323;49.394;8.434;2023-07-08T06:04:02;13.40;;;7.82;;
19816;SDS011;68323;49.394;8.434;2023-07-08T06:06:27;12.25;;;7.70;;
19816;SDS011;68323;49.394;8.434;2023-07-08T06:08:53;18.23;;;8.18;;
19816;SDS011;68323;49.394;8.434;2023-07-08T06:11:19;14.70;;;8.65;;
19816;SDS011;68323;49.394;8.434;2023-07-08T06:13:46;14.75;;;9.20;;
19816;SDS011;68323;49.394;8.434;2023-07-08T06:16:12;19.30;;;8.85;;
19816;SDS011;68323;49.394;8.434;2023-07-08T06:18:38;17.77;;;9.50;;
19816;SDS011;68323;49.394;8.434;2023-07-08T06:21:04;14.48;;;8.05;;
19816;SDS011;68323;49.394;8.434;2023-07-08T06:23:30;13.18;;;8.23;;
19816;SDS011;68323;49.394;8.434;2023-07-08T06:25:56;15.27;;;7.80;;
19816;SDS011;68323;49.394;8.434;2023-07-08T06:28:22;12.52;;;7.85;;
19816;SDS011;68323;49.394;8.434;2023-07-08T06:30:48;11.50;;;8.13;;
19816;SDS011;68323;49.394;8.434;2023-07-08T06:33:14;13.68;;;8.45;;
19816;SDS011;68323;49.394;8.434;2023-07-08T06:35:40;12.00;;;8.30;;
19816;SDS011;68323;49.394;8.434;2023-07-08T06:38:06;16.17;;;7.90;;
19816;SDS011;68323;49.394;8.434;2023-07-08T06:40:33;16.40;;;8.38;;
19816;SDS011;68323;49.394;8.434;2023-07-08T06:43:06;13.15;;;7.60;;
19816;SDS011;68323;49.394;8.434;2023-07-08T06:45:32;11.52;;;8.10;;
19816;SDS011;68323;49.394;8.434;2023-07-08T06:47:57;13.95;;;8.35;;
19816;SDS011;68323;49.394;8.434;2023-07-08T06:50:23;11.80;;;8.35;;
19816;SDS011;68323;49.394;8.434;2023-07-08T06:52:48;13.88;;;8.90;;
19816;SDS011;68323;49.394;8.434;2023-07-08T06:55:14;13.20;;;8.00;;
19816;SDS011;68323;49.394;8.434;2023-07-08T06:57:40;10.40;;;7.97;;
19816;SDS011;68323;49.394;8.434;2023-07-08T07:00:06;14.85;;;8.68;;
19816;SDS011;68323;49.394;8.434;2023-07-08T07:02:33;10.25;;;7.97;;
19816;SDS011;68323;49.394;8.434;2023-07-08T07:04:59;13.15;;;8.02;;
19816;SDS011;68323;49.394;8.434;2023-07-08T07:07:25;14.90;;;8.85;;
19816;SDS011;68323;49.394;8.434;2023-07-08T07:09:50;13.32;;;8.30;;
19816;SDS011;68323;49.394;8.434;2023-07-08T07:12:16;12.63;;;8.82;;
19816;SDS011;68323;49.394;8.434;2023-07-08T07:14:42;12.90;;;8.50;;
19816;SDS011;68323;49.394;8.434;2023-07-08T07:17:07;13.90;;;8.57;;
19816;SDS011;68323;49.394;8.434;2023-07-08T07:19:33;10.57;;;8.30;;
19816;SDS011;68323;49.394;8.434;2023-07-08T07:21:58;12.27;;;8.18;;
19816;SDS011;68323;49.394;8.434;2023-07-08T07:24:24;15.60;;;8.48;;
19816;SDS011;68323;49.394;8.434;2023-07-08T07:26:50;12.95;;;8.10;;
19816;SDS011;68323;49.394;8.434;2023-07-08T07:29:16;10.98;;;8.23;;
19816;SDS011;68323;49.394;8.434;2023-07-08T07:31:42;14.02;;;7.57;;
19816;SDS011;68323;49.394;8.434;2023-07-08T07:34:07;10.48;;;7.53;;
19816;SDS011;68323;49.394;8.434;2023-07-08T07:36:34;9.73;;;7.65;;
19816;SDS011;68323;49.394;8.434;2023-07-08T07:39:01;12.60;;;7.63;;
19816;SDS011;68323;49.394;8.434;2023-07-08T07:41:27;11.27;;;7.07;;
19816;SDS011;68323;49.394;8.434;2023-07-08T07:43:52;10.68;;;7.32;;
19816;SDS011;68323;49.394;8.434;2023-07-08T07:46:18;10.45;;;6.85;;
19816;SDS011;68323;49.394;8.434;2023-07-08T07:48:43;13.93;;;6.43;;
19816;SDS011;68323;49.394;8.434;2023-07-08T07:51:09;10.23;;;5.70;;
19816;SDS011;68323;49.394;8.434;2023-07-08T07:53:36;8.23;;;5.30;;
19816;SDS011;68323;49.394;8.434;2023-07-08T07:56:02;8.27;;;5.07;;
19816;SDS011;68323;49.394;8.434;2023-07-08T07:58:29;8.23;;;5.10;;
19816;SDS011;68323;49.394;8.434;2023-07-08T08:00:55;8.75;;;5.28;;
19816;SDS011;68323;49.394;8.434;2023-07-08T08:03:21;12.48;;;4.75;;
19816;SDS011;68323;49.394;8.434;2023-07-08T08:05:47;10.07;;;4.82;;
19816;SDS011;68323;49.394;8.434;2023-07-08T08:08:13;9.05;;;4.60;;
19816;SDS011;68323;49.394;8.434;2023-07-08T08:10:39;8.57;;;4.55;;
19816;SDS011;68323;49.394;8.434;2023-07-08T08:13:04;7.90;;;4.57;;
19816;SDS011;68323;49.394;8.434;2023-07-08T08:15:30;7.80;;;4.63;;
19816;SDS011;68323;49.394;8.434;2023-07-08T08:17:56;9.88;;;4.85;;
19816;SDS011;68323;49.394;8.434;2023-07-08T08:20:22;8.32;;;4.78;;
19816;SDS011;68323;49.394;8.434;2023-07-08T08:22:49;9.90;;;4.82;;
19816;SDS011;68323;49.394;8.434;2023-07-08T08:25:15;9.35;;;4.82;;
19816;SDS011;68323;49.394;8.434;2023-07-08T08:27:42;6.35;;;4.60;;
19816;SDS011;68323;49.394;8.434;2023-07-08T08:30:09;12.68;;;4.63;;
19816;SDS011;68323;49.394;8.434;2023-07-08T08:32:35;8.15;;;4.30;;
19816;SDS011;68323;49.394;8.434;2023-07-08T08:35:00;7.85;;;3.85;;
19816;SDS011;68323;49.394;8.434;2023-07-08T08:37:26;9.95;;;4.30;;
19816;SDS011;68323;49.394;8.434;2023-07-08T08:39:51;10.85;;;3.83;;
19816;SDS011;68323;49.394;8.434;2023-07-08T08:42:24;10.80;;;4.03;;
19816;SDS011;68323;49.394;8.434;2023-07-08T08:44:52;9.38;;;4.25;;
19816;SDS011;68323;49.394;8.434;2023-07-08T08:47:29;10.02;;;4.05;;
19816;SDS011;68323;49.394;8.434;2023-07-08T08:50:25;7.45;;;4.32;;
19816;SDS011;68323;49.394;8.434;2023-07-08T08:53:11;13.63;;;4.57;;
19816;SDS011;68323;49.394;8.434;2023-07-08T08:55:39;9.52;;;4.40;;
19816;SDS011;68323;49.394;8.434;2023-07-08T09:01:02;9.10;;;4.38;;
19816;SDS011;68323;49.394;8.434;2023-07-08T09:03:34;8.32;;;4.28;;
19816;SDS011;68323;49.394;8.434;2023-07-08T09:06:12;7.75;;;4.25;;
19816;SDS011;68323;49.394;8.434;2023-07-08T09:14:16;8.88;;;5.07;;
19816;SDS011;68323;49.394;8.434;2023-07-08T09:16:54;8.95;;;4.60;;
19816;SDS011;68323;49.394;8.434;2023-07-08T09:19:49;8.18;;;4.32;;
19816;SDS011;68323;49.394;8.434;2023-07-08T09:22:51;7.40;;;4.25;;
19816;SDS011;68323;49.394;8.434;2023-07-08T09:27:56;7.72;;;4.32;;
19816;SDS011;68323;49.394;8.434;2023-07-08T09:30:22;10.93;;;5.05;;
19816;SDS011;68323;49.394;8.434;2023-07-08T09:32:49;10.00;;;4.50;;
19816;SDS011;68323;49.394;8.434;2023-07-08T09:35:17;9.82;;;5.07;;
19816;SDS011;68323;49.394;8.434;2023-07-08T09:37:51;7.05;;;4.85;;
19816;SDS011;68323;49.394;8.434;2023-07-08T09:43:05;8.45;;;5.32;;
19816;SDS011;68323;49.394;8.434;2023-07-08T09:45:48;8.05;;;5.32;;
19816;SDS011;68323;49.394;8.434;2023-07-08T09:48:24;8.95;;;4.90;;
19816;SDS011;68323;49.394;8.434;2023-07-08T09:50:52;9.15;;;5.10;;
19816;SDS011;68323;49.394;8.434;2023-07-08T09:53:20;9.02;;;5.00;;
19816;SDS011;68323;49.394;8.434;2023-07-08T09:55:46;9.48;;;5.22;;
19816;SDS011;68323;49.394;8.434;2023-07-08T09:58:18;7.35;;;4.90;;
19816;SDS011;68323;49.394;8.434;2023-07-08T10:00:54;11.32;;;5.05;;
19816;SDS011;68323;49.394;8.434;2023-07-08T10:03:23;9.30;;;5.38;;
19816;SDS011;68323;49.394;8.434;2023-07-08T10:05:51;8.60;;;5.05;;
19816;SDS011;68323;49.394;8.434;2023-07-08T10:08:22;11.27;;;5.30;;
19816;SDS011;68323;49.394;8.434;2023-07-08T10:11:00;11.65;;;5.15;;
19816;SDS011;68323;49.394;8.434;2023-07-08T10:13:34;8.93;;;5.38;;
19816;SDS011;68323;49.394;8.434;2023-07-08T10:16:27;10.10;;;5.20;;
19816;SDS011;68323;49.394;8.434;2023-07-08T10:18:54;8.50;;;5.00;;
19816;SDS011;68323;49.394;8.434;2023-07-08T10:21:23;11.20;;;5.55;;
19816;SDS011;68323;49.394;8.434;2023-07-08T10:27:05;12.68;;;4.88;;
19816;SDS011;68323;49.394;8.434;2023-07-08T10:29:54;8.15;;;4.85;;
19816;SDS011;68323;49.394;8.434;2023-07-08T10:32:37;8.45;;;5.22;;
19816;SDS011;68323;49.394;8.434;2023-07-08T10:35:18;8.77;;;5.10;;
19816;SDS011;68323;49.394;8.434;2023-07-08T10:43:09;8.32;;;5.25;;
19816;SDS011;68323;49.394;8.434;2023-07-08T10:48:24;8.15;;;5.50;;
19816;SDS011;68323;49.394;8.434;2023-07-08T10:51:01;9.27;;;5.43;;
19816;SDS011;68323;49.394;8.434;2023-07-08T10:56:28;8.93;;;4.82;;
19816;SDS011;68323;49.394;8.434;2023-07-08T11:04:31;9.85;;;5.07;;
19816;SDS011;68323;49.394;8.434;2023-07-08T11:07:12;8.68;;;4.70;;
19816;SDS011;68323;49.394;8.434;2023-07-08T11:09:42;11.07;;;5.00;;
19816;SDS011;68323;49.394;8.434;2023-07-08T11:12:34;8.68;;;4.68;;
19816;SDS011;68323;49.394;8.434;2023-07-08T11:17:38;7.97;;;4.60;;
19816;SDS011;68323;49.394;8.434;2023-07-08T11:20:32;8.68;;;5.15;;
19816;SDS011;68323;49.394;8.434;2023-07-08T11:26:09;8.73;;;4.85;;
19816;SDS011;68323;49.394;8.434;2023-07-08T11:28:43;6.55;;;4.68;;
19816;SDS011;68323;49.394;8.434;2023-07-08T11:31:09;7.88;;;5.18;;
19816;SDS011;68323;49.394;8.434;2023-07-08T11:33:39;7.10;;;4.78;;
19816;SDS011;68323;49.394;8.434;2023-07-08T11:36:06;9.15;;;4.80;;
19816;SDS011;68323;49.394;8.434;2023-07-08T11:38:33;8.98;;;4.82;;
19816;SDS011;68323;49.394;8.434;2023-07-08T11:41:04;12.20;;;4.25;;
19816;SDS011;68323;49.394;8.434;2023-07-08T11:43:46;8.63;;;4.80;;
19816;SDS011;68323;49.394;8.434;2023-07-08T11:46:17;8.25;;;4.50;;
19816;SDS011;68323;49.394;8.434;2023-07-08T11:48:46;7.65;;;4.60;;
19816;SDS011;68323;49.394;8.434;2023-07-08T11:51:17;8.38;;;5.10;;
19816;SDS011;68323;49.394;8.434;2023-07-08T11:53:59;8.15;;;4.47;;
19816;SDS011;68323;49.394;8.434;2023-07-08T11:56:28;9.02;;;5.07;;
19816;SDS011;68323;49.394;8.434;2023-07-08T11:59:23;10.07;;;5.25;;
19816;SDS011;68323;49.394;8.434;2023-07-08T12:04:17;10.13;;;5.07;;
19816;SDS011;68323;49.394;8.434;2023-07-08T12:07:16;10.50;;;5.15;;
19816;SDS011;68323;49.394;8.434;2023-07-08T12:09:46;8.95;;;5.00;;
19816;SDS011;68323;49.394;8.434;2023-07-08T12:12:24;11.45;;;4.85;;
19816;SDS011;68323;49.394;8.434;2023-07-08T12:14:58;8.55;;;5.10;;
19816;SDS011;68323;49.394;8.434;2023-07-08T12:17:35;6.43;;;5.05;;
19816;SDS011;68323;49.394;8.434;2023-07-08T12:20:03;10.98;;;4.82;;
19816;SDS011;68323;49.394;8.434;2023-07-08T12:22:38;9.00;;;4.57;;
19816;SDS011;68323;49.394;8.434;2023-07-08T12:25:07;8.40;;;4.82;;
19816;SDS011;68323;49.394;8.434;2023-07-08T12:27:38;9.80;;;5.03;;
19816;SDS011;68323;49.394;8.434;2023-07-08T12:30:03;10.57;;;4.78;;
19816;SDS011;68323;49.394;8.434;2023-07-08T12:32:29;8.60;;;5.05;;
19816;SDS011;68323;49.394;8.434;2023-07-08T12:34:55;12.00;;;5.07;;
19816;SDS011;68323;49.394;8.434;2023-07-08T12:37:21;10.07;;;4.90;;
19816;SDS011;68323;49.394;8.434;2023-07-08T12:39:56;10.63;;;5.15;;
19816;SDS011;68323;49.394;8.434;2023-07-08T12:42:31;10.55;;;5.25;;
19816;SDS011;68323;49.394;8.434;2023-07-08T12:44:56;8.60;;;5.03;;
19816;SDS011;68323;49.394;8.434;2023-07-08T12:47:22;9.00;;;5.35;;
19816;SDS011;68323;49.394;8.434;2023-07-08T12:49:48;10.55;;;4.93;;
19816;SDS011;68323;49.394;8.434;2023-07-08T12:52:20;11.93;;;5.32;;
19816;SDS011;68323;49.394;8.434;2023-07-08T12:54:47;8.07;;;4.70;;
19816;SDS011;68323;49.394;8.434;2023-07-08T12:57:13;6.53;;;4.75;;
19816;SDS011;68323;49.394;8.434;2023-07-08T12:59:41;10.43;;;4.70;;
19816;SDS011;68323;49.394;8.434;2023-07-08T13:02:14;11.10;;;4.85;;
19816;SDS011;68323;49.394;8.434;2023-07-08T13:04:44;7.35;;;4.68;;
19816;SDS011;68323;49.394;8.434;2023-07-08T13:07:44;8.75;;;4.78;;
19816;SDS011;68323;49.394;8.434;2023-07-08T13:10:06;8.73;;;4.10;;
19816;SDS011;68323;49.394;8.434;2023-07-08T13:12:40;10.07;;;4.40;;
19816;SDS011;68323;49.394;8.434;2023-07-08T13:15:09;8.38;;;4.57;;
19816;SDS011;68323;49.394;8.434;2023-07-08T13:17:42;11.43;;;4.82;;
19816;SDS011;68323;49.394;8.434;2023-07-08T13:20:10;8.20;;;4.82;;
19816;SDS011;68323;49.394;8.434;2023-07-08T13:22:43;8.45;;;4.40;;
19816;SDS011;68323;49.394;8.434;2023-07-08T13:25:16;8.32;;;4.60;;
19816;SDS011;68323;49.394;8.434;2023-07-08T13:27:47;8.55;;;4.32;;
19816;SDS011;68323;49.394;8.434;2023-07-08T13:30:20;9.63;;;4.55;;
19816;SDS011;68323;49.394;8.434;2023-07-08T13:32:51;7.95;;;4.60;;
19816;SDS011;68323;49.394;8.434;2023-07-08T13:35:23;6.78;;;4.28;;
19816;SDS011;68323;49.394;8.434;2023-07-08T13:37:59;6.25;;;4.10;;
19816;SDS011;68323;49.394;8.434;2023-07-08T13:40:26;5.57;;;4.28;;
19816;SDS011;68323;49.394;8.434;2023-07-08T13:42:53;7.55;;;3.95;;
19816;SDS011;68323;49.394;8.434;2023-07-08T13:45:21;9.13;;;4.63;;
19816;SDS011;68323;49.394;8.434;2023-07-08T13:48:00;9.07;;;4.30;;
19816;SDS011;68323;49.394;8.434;2023-07-08T13:50:38;6.70;;;4.25;;
19816;SDS011;68323;49.394;8.434;2023-07-08T13:53:16;8.75;;;4.80;;
19816;SDS011;68323;49.394;8.434;2023-07-08T13:55:58;8.90;;;4.57;;
19816;SDS011;68323;49.394;8.434;2023-07-08T13:58:29;8.65;;;4.05;;
19816;SDS011;68323;49.394;8.434;2023-07-08T14:00:55;7.05;;;4.10;;
19816;SDS011;68323;49.394;8.434;2023-07-08T14:03:22;6.47;;;4.00;;
19816;SDS011;68323;49.394;8.434;2023-07-08T14:05:47;11.57;;;4.75;;
19816;SDS011;68323;49.394;8.434;2023-07-08T14:08:15;6.10;;;4.10;;
19816;SDS011;68323;49.394;8.434;2023-07-08T14:10:58;6.82;;;4.13;;
19816;SDS011;68323;49.394;8.434;2023-07-08T14:13:24;8.32;;;4.20;;
19816;SDS011;68323;49.394;8.434;2023-07-08T14:15:52;8.25;;;3.78;;
19816;SDS011;68323;49.394;8.434;2023-07-08T14:18:25;9.43;;;4.40;;
19816;SDS011;68323;49.394;8.434;2023-07-08T14:20:51;7.40;;;4.13;;
19816;SDS011;68323;49.394;8.434;2023-07-08T14:23:17;8.70;;;4.10;;
19816;SDS011;68323;49.394;8.434;2023-07-08T14:25:49;6.60;;;4.38;;
19816;SDS011;68323;49.394;8.434;2023-07-08T14:28:24;9.30;;;4.40;;
19816;SDS011;68323;49.394;8.434;2023-07-08T14:30:52;9.55;;;4.03;;
19816;SDS011;68323;49.394;8.434;2023-07-08T14:33:17;8.82;;;4.25;;
19816;SDS011;68323;49.394;8.434;2023-07-08T14:35:43;7.05;;;3.80;;
19816;SDS011;68323;49.394;8.434;2023-07-08T14:38:12;5.30;;;3.33;;
19816;SDS011;68323;49.394;8.434;2023-07-08T14:40:39;7.70;;;3.45;;
19816;SDS011;68323;49.394;8.434;2023-07-08T14:43:16;7.03;;;3.50;;
19816;SDS011;68323;49.394;8.434;2023-07-08T14:45:46;5.68;;;3.22;;
19816;SDS011;68323;49.394;8.434;2023-07-08T14:48:15;4.25;;;2.67;;
19816;SDS011;68323;49.394;8.434;2023-07-08T14:50:40;6.60;;;3.20;;
19816;SDS011;68323;49.394;8.434;2023-07-08T14:53:06;5.93;;;3.22;;
19816;SDS011;68323;49.394;8.434;2023-07-08T14:55:32;6.28;;;3.10;;
19816;SDS011;68323;49.394;8.434;2023-07-08T14:57:58;7.18;;;3.13;;
19816;SDS011;68323;49.394;8.434;2023-07-08T15:00:25;7.00;;;3.03;;
19816;SDS011;68323;49.394;8.434;2023-07-08T15:02:50;6.50;;;3.15;;
19816;SDS011;68323;49.394;8.434;2023-07-08T15:05:18;9.25;;;3.60;;
19816;SDS011;68323;49.394;8.434;2023-07-08T15:07:52;5.72;;;3.10;;
19816;SDS011;68323;49.394;8.434;2023-07-08T15:10:19;6.22;;;3.30;;
19816;SDS011;68323;49.394;8.434;2023-07-08T15:12:47;7.18;;;3.33;;
19816;SDS011;68323;49.394;8.434;2023-07-08T15:15:14;5.00;;;3.28;;
19816;SDS011;68323;49.394;8.434;2023-07-08T15:17:41;6.05;;;3.20;;
19816;SDS011;68323;49.394;8.434;2023-07-08T15:20:09;5.07;;;3.35;;
19816;SDS011;68323;49.394;8.434;2023-07-08T15:22:37;7.05;;;3.45;;
19816;SDS011;68323;49.394;8.434;2023-07-08T15:25:07;3.97;;;2.75;;
19816;SDS011;68323;49.394;8.434;2023-07-08T15:27:38;5.10;;;2.95;;
19816;SDS011;68323;49.394;8.434;2023-07-08T15:30:10;6.85;;;3.05;;
19816;SDS011;68323;49.394;8.434;2023-07-08T15:32:43;5.03;;;2.63;;
19816;SDS011;68323;49.394;8.434;2023-07-08T15:35:13;6.80;;;2.88;;